sensor_id;sensor_type;location;lat;lon;timestamp;P1;durP1;ratioP1;P2;durP2;ratioP2
80247;SDS011;69560;52.206;21.018;2024-02-26T00:01:00;28.30;;;18.30;;
80247;SDS011;69560;52.206;21.018;2024-02-26T00:03:47;26.40;;;18.20;;
80247;SDS011;69560;52.206;21.018;2024-02-26T00:06:14;29.50;;;20.00;;
80247;SDS011;69560;52.206;21.018;2024-02-26T00:08:40;27.10;;;19.60;;
80247;SDS011;69560;52.206;21.018;2024-02-26T00:11:07;28.70;;;19.90;;
80247;SDS011;69560;52.206;21.018;2024-02-26T00:13:33;28.90;;;19.60;;
80247;SDS011;69560;52.206;21.018;2024-02-26T00:16:00;28.50;;;19.70;;
80247;SDS011;69560;52.206;21.018;2024-02-26T00:18:27;30.60;;;19.70;;
80247;SDS011;69560;52.206;21.018;2024-02-26T00:20:53;28.40;;;19.90;;
80247;SDS011;69560;52.206;21.018;2024-02-26T00:23:20;27.50;;;19.90;;
80247;SDS011;69560;52.206;21.018;2024-02-26T00:25:46;28.70;;;19.10;;
80247;SDS011;69560;52.206;21.018;2024-02-26T00:28:13;26.20;;;18.50;;
80247;SDS011;69560;52.206;21.018;2024-02-26T00:30:40;27.80;;;19.50;;
80247;SDS011;69560;52.206;21.018;2024-02-26T00:33:06;29.20;;;19.90;;
80247;SDS011;69560;52.206;21.018;2024-02-26T00:35:33;28.80;;;19.70;;
80247;SDS011;69560;52.206;21.018;2024-02-26T00:37:59;33.40;;;20.70;;
80247;SDS011;69560;52.206;21.018;2024-02-26T00:40:28;29.90;;;20.60;;
80247;SDS011;69560;52.206;21.018;2024-02-26T00:42:55;28.60;;;19.90;;
80247;SDS011;69560;52.206;21.018;2024-02-26T00:45:22;30.10;;;19.50;;
80247;SDS011;69560;52.206;21.018;2024-02-26T00:47:48;29.00;;;20.30;;
80247;SDS011;69560;52.206;21.018;2024-02-26T00:50:15;29.40;;;20.40;;
80247;SDS011;69560;52.206;21.018;2024-02-26T00:52:41;29.40;;;20.00;;
80247;SDS011;69560;52.206;21.018;2024-02-26T00:55:08;29.40;;;20.10;;
80247;SDS011;69560;52.206;21.018;2024-02-26T00:57:35;31.60;;;21.20;;
80247;SDS011;69560;52.206;21.018;2024-02-26T01:00:01;33.20;;;21.50;;
80247;SDS011;69560;52.206;21.018;2024-02-26T01:02:28;30.50;;;20.40;;
80247;SDS011;69560;52.206;21.018;2024-02-26T01:04:55;31.20;;;19.70;;
80247;SDS011;69560;52.206;21.018;2024-02-26T01:07:21;32.90;;;20.30;;
80247;SDS011;69560;52.206;21.018;2024-02-26T01:09:48;84.50;;;58.70;;
80247;SDS011;69560;52.206;21.018;2024-02-26T01:12:15;47.70;;;33.30;;
80247;SDS011;69560;52.206;21.018;2024-02-26T01:14:42;37.20;;;24.70;;
80247;SDS011;69560;52.206;21.018;2024-02-26T01:17:08;32.20;;;22.00;;
80247;SDS011;69560;52.206;21.018;2024-02-26T01:19:35;33.20;;;22.90;;
80247;SDS011;69560;52.206;21.018;2024-02-26T01:22:01;32.80;;;21.80;;
80247;SDS011;69560;52.206;21.018;2024-02-26T01:24:28;31.90;;;21.70;;
80247;SDS011;69560;52.206;21.018;2024-02-26T01:26:55;34.10;;;22.70;;
80247;SDS011;69560;52.206;21.018;2024-02-26T01:29:21;32.80;;;21.90;;
80247;SDS011;69560;52.206;21.018;2024-02-26T01:31:48;28.40;;;19.90;;
80247;SDS011;69560;52.206;21.018;2024-02-26T01:34:14;29.90;;;20.20;;
80247;SDS011;69560;52.206;21.018;2024-02-26T01:36:41;30.70;;;20.00;;
80247;SDS011;69560;52.206;21.018;2024-02-26T01:39:08;33.20;;;20.90;;
80247;SDS011;69560;52.206;21.018;2024-02-26T01:41:38;33.20;;;20.80;;
80247;SDS011;69560;52.206;21.018;2024-02-26T01:44:05;34.60;;;20.10;;
80247;SDS011;69560;52.206;21.018;2024-02-26T01:46:32;28.80;;;21.00;;
80247;SDS011;69560;52.206;21.018;2024-02-26T01:49:01;30.70;;;20.70;;
80247;SDS011;69560;52.206;21.018;2024-02-26T01:51:29;31.20;;;21.80;;
80247;SDS011;69560;52.206;21.018;2024-02-26T01:53:57;31.60;;;20.80;;
80247;SDS011;69560;52.206;21.018;2024-02-26T01:56:25;30.90;;;20.70;;
80247;SDS011;69560;52.206;21.018;2024-02-26T01:58:57;29.20;;;19.90;;
80247;SDS011;69560;52.206;21.018;2024-02-26T02:01:27;27.30;;;18.90;;
80247;SDS011;69560;52.206;21.018;2024-02-26T02:03:56;27.90;;;19.00;;
80247;SDS011;69560;52.206;21.018;2024-02-26T02:06:25;32.80;;;20.50;;
80247;SDS011;69560;52.206;21.018;2024-02-26T02:08:54;29.10;;;18.90;;
80247;SDS011;69560;52.206;21.018;2024-02-26T02:11:20;26.30;;;18.40;;
80247;SDS011;69560;52.206;21.018;2024-02-26T02:13:47;27.60;;;18.90;;
80247;SDS011;69560;52.206;21.018;2024-02-26T02:16:13;30.00;;;19.40;;
80247;SDS011;69560;52.206;21.018;2024-02-26T02:18:40;26.60;;;19.10;;
80247;SDS011;69560;52.206;21.018;2024-02-26T02:21:06;27.60;;;18.00;;
80247;SDS011;69560;52.206;21.018;2024-02-26T02:23:33;28.00;;;19.00;;
80247;SDS011;69560;52.206;21.018;2024-02-26T02:25:59;31.60;;;19.20;;
80247;SDS011;69560;52.206;21.018;2024-02-26T02:28:26;28.60;;;19.70;;
80247;SDS011;69560;52.206;21.018;2024-02-26T02:30:54;29.60;;;19.80;;
80247;SDS011;69560;52.206;21.018;2024-02-26T02:33:21;32.40;;;20.50;;
80247;SDS011;69560;52.206;21.018;2024-02-26T02:35:49;30.70;;;20.50;;
80247;SDS011;69560;52.206;21.018;2024-02-26T02:38:17;29.00;;;19.50;;
80247;SDS011;69560;52.206;21.018;2024-02-26T02:40:43;28.90;;;19.90;;
80247;SDS011;69560;52.206;21.018;2024-02-26T02:43:10;30.40;;;20.30;;
80247;SDS011;69560;52.206;21.018;2024-02-26T02:45:36;32.90;;;21.10;;
80247;SDS011;69560;52.206;21.018;2024-02-26T02:48:03;31.90;;;20.90;;
80247;SDS011;69560;52.206;21.018;2024-02-26T02:50:30;29.60;;;19.90;;
80247;SDS011;69560;52.206;21.018;2024-02-26T02:52:57;29.90;;;19.60;;
80247;SDS011;69560;52.206;21.018;2024-02-26T02:55:23;33.80;;;21.40;;
80247;SDS011;69560;52.206;21.018;2024-02-26T02:57:50;31.50;;;20.60;;
80247;SDS011;69560;52.206;21.018;2024-02-26T03:00:17;28.60;;;20.60;;
80247;SDS011;69560;52.206;21.018;2024-02-26T03:02:43;34.50;;;23.10;;
80247;SDS011;69560;52.206;21.018;2024-02-26T03:05:11;33.80;;;21.80;;
80247;SDS011;69560;52.206;21.018;2024-02-26T03:07:38;33.10;;;22.30;;
80247;SDS011;69560;52.206;21.018;2024-02-26T03:10:04;30.30;;;22.00;;
80247;SDS011;69560;52.206;21.018;2024-02-26T03:12:32;31.90;;;21.60;;
80247;SDS011;69560;52.206;21.018;2024-02-26T03:15:00;32.60;;;22.90;;
80247;SDS011;69560;52.206;21.018;2024-02-26T03:17:29;31.00;;;22.10;;
80247;SDS011;69560;52.206;21.018;2024-02-26T03:19:56;30.70;;;21.10;;
80247;SDS011;69560;52.206;21.018;2024-02-26T03:22:22;33.70;;;21.20;;
80247;SDS011;69560;52.206;21.018;2024-02-26T03:24:49;30.40;;;20.10;;
80247;SDS011;69560;52.206;21.018;2024-02-26T03:27:16;30.90;;;20.60;;
80247;SDS011;69560;52.206;21.018;2024-02-26T03:29:42;30.70;;;20.80;;
80247;SDS011;69560;52.206;21.018;2024-02-26T03:32:09;30.30;;;21.30;;
80247;SDS011;69560;52.206;21.018;2024-02-26T03:34:35;31.50;;;21.70;;
80247;SDS011;69560;52.206;21.018;2024-02-26T03:37:02;29.70;;;20.60;;
80247;SDS011;69560;52.206;21.018;2024-02-26T03:39:28;30.60;;;21.60;;
80247;SDS011;69560;52.206;21.018;2024-02-26T03:41:55;32.50;;;21.60;;
80247;SDS011;69560;52.206;21.018;2024-02-26T03:44:21;33.00;;;22.10;;
80247;SDS011;69560;52.206;21.018;2024-02-26T03:46:48;30.00;;;21.00;;
80247;SDS011;69560;52.206;21.018;2024-02-26T03:49:14;30.00;;;20.30;;
80247;SDS011;69560;52.206;21.018;2024-02-26T03:51:41;29.50;;;20.20;;
80247;SDS011;69560;52.206;21.018;2024-02-26T03:54:07;30.40;;;20.70;;
80247;SDS011;69560;52.206;21.018;2024-02-26T03:56:34;29.60;;;19.80;;
80247;SDS011;69560;52.206;21.018;2024-02-26T03:59:01;31.40;;;21.70;;
80247;SDS011;69560;52.206;21.018;2024-02-26T04:01:28;31.20;;;21.90;;
80247;SDS011;69560;52.206;21.018;2024-02-26T04:03:55;30.90;;;21.60;;
80247;SDS011;69560;52.206;21.018;2024-02-26T04:06:22;30.90;;;22.10;;
80247;SDS011;69560;52.206;21.018;2024-02-26T04:08:48;34.50;;;22.80;;
80247;SDS011;69560;52.206;21.018;2024-02-26T04:11:15;36.00;;;24.30;;
80247;SDS011;69560;52.206;21.018;2024-02-26T04:13:44;36.50;;;23.10;;
80247;SDS011;69560;52.206;21.018;2024-02-26T04:16:17;31.80;;;22.10;;
80247;SDS011;69560;52.206;21.018;2024-02-26T04:18:43;34.60;;;22.80;;
80247;SDS011;69560;52.206;21.018;2024-02-26T04:21:10;33.30;;;22.40;;
80247;SDS011;69560;52.206;21.018;2024-02-26T04:23:36;32.50;;;22.60;;
80247;SDS011;69560;52.206;21.018;2024-02-26T04:26:03;33.00;;;22.40;;
80247;SDS011;69560;52.206;21.018;2024-02-26T04:28:30;35.20;;;22.80;;
80247;SDS011;69560;52.206;21.018;2024-02-26T04:30:56;35.00;;;23.60;;
80247;SDS011;69560;52.206;21.018;2024-02-26T04:33:23;36.00;;;23.10;;
80247;SDS011;69560;52.206;21.018;2024-02-26T04:35:49;32.30;;;23.30;;
80247;SDS011;69560;52.206;21.018;2024-02-26T04:38:16;34.10;;;24.40;;
80247;SDS011;69560;52.206;21.018;2024-02-26T04:40:42;32.80;;;23.50;;
80247;SDS011;69560;52.206;21.018;2024-02-26T04:43:09;34.50;;;24.00;;
80247;SDS011;69560;52.206;21.018;2024-02-26T04:45:35;37.30;;;23.50;;
80247;SDS011;69560;52.206;21.018;2024-02-26T04:48:03;32.60;;;21.90;;
80247;SDS011;69560;52.206;21.018;2024-02-26T04:50:29;34.90;;;22.50;;
80247;SDS011;69560;52.206;21.018;2024-02-26T04:52:56;32.80;;;21.50;;
80247;SDS011;69560;52.206;21.018;2024-02-26T04:55:22;34.20;;;21.80;;
80247;SDS011;69560;52.206;21.018;2024-02-26T04:57:49;33.40;;;22.50;;
80247;SDS011;69560;52.206;21.018;2024-02-26T05:00:16;37.90;;;23.90;;
80247;SDS011;69560;52.206;21.018;2024-02-26T05:02:43;37.60;;;23.80;;
80247;SDS011;69560;52.206;21.018;2024-02-26T05:05:09;34.80;;;23.00;;
80247;SDS011;69560;52.206;21.018;2024-02-26T05:07:39;37.90;;;22.50;;
80247;SDS011;69560;52.206;21.018;2024-02-26T05:10:07;35.30;;;22.80;;
80247;SDS011;69560;52.206;21.018;2024-02-26T05:12:34;38.40;;;22.10;;
80247;SDS011;69560;52.206;21.018;2024-02-26T05:15:02;32.30;;;21.60;;
80247;SDS011;69560;52.206;21.018;2024-02-26T05:17:29;34.20;;;19.40;;
80247;SDS011;69560;52.206;21.018;2024-02-26T05:19:56;34.40;;;21.90;;
80247;SDS011;69560;52.206;21.018;2024-02-26T05:22:22;33.00;;;21.30;;
80247;SDS011;69560;52.206;21.018;2024-02-26T05:24:49;32.10;;;19.80;;
80247;SDS011;69560;52.206;21.018;2024-02-26T05:27:15;33.20;;;21.60;;
80247;SDS011;69560;52.206;21.018;2024-02-26T05:29:42;34.80;;;21.10;;
80247;SDS011;69560;52.206;21.018;2024-02-26T05:32:08;29.60;;;19.20;;
80247;SDS011;69560;52.206;21.018;2024-02-26T05:34:35;28.70;;;19.70;;
80247;SDS011;69560;52.206;21.018;2024-02-26T05:37:01;29.30;;;19.40;;
80247;SDS011;69560;52.206;21.018;2024-02-26T05:39:28;29.10;;;20.00;;
80247;SDS011;69560;52.206;21.018;2024-02-26T05:41:54;28.90;;;20.80;;
80247;SDS011;69560;52.206;21.018;2024-02-26T05:44:22;30.10;;;20.30;;
80247;SDS011;69560;52.206;21.018;2024-02-26T05:46:49;33.00;;;21.50;;
80247;SDS011;69560;52.206;21.018;2024-02-26T05:49:15;30.20;;;21.10;;
80247;SDS011;69560;52.206;21.018;2024-02-26T05:51:42;30.90;;;21.40;;
80247;SDS011;69560;52.206;21.018;2024-02-26T05:54:09;33.80;;;21.30;;
80247;SDS011;69560;52.206;21.018;2024-02-26T05:56:36;30.50;;;20.60;;
80247;SDS011;69560;52.206;21.018;2024-02-26T05:59:03;30.30;;;19.90;;
80247;SDS011;69560;52.206;21.018;2024-02-26T06:01:30;30.50;;;19.80;;
80247;SDS011;69560;52.206;21.018;2024-02-26T06:03:57;26.80;;;18.90;;
80247;SDS011;69560;52.206;21.018;2024-02-26T06:06:23;29.10;;;20.40;;
80247;SDS011;69560;52.206;21.018;2024-02-26T06:08:49;33.10;;;20.10;;
80247;SDS011;69560;52.206;21.018;2024-02-26T06:11:16;30.90;;;21.00;;
80247;SDS011;69560;52.206;21.018;2024-02-26T06:13:43;30.50;;;20.60;;
80247;SDS011;69560;52.206;21.018;2024-02-26T06:16:09;30.90;;;21.60;;
80247;SDS011;69560;52.206;21.018;2024-02-26T06:18:36;33.20;;;22.00;;
80247;SDS011;69560;52.206;21.018;2024-02-26T06:21:02;38.70;;;23.10;;
80247;SDS011;69560;52.206;21.018;2024-02-26T06:23:29;34.20;;;21.90;;
80247;SDS011;69560;52.206;21.018;2024-02-26T06:25:56;30.80;;;21.10;;
80247;SDS011;69560;52.206;21.018;2024-02-26T06:28:22;32.50;;;21.30;;
80247;SDS011;69560;52.206;21.018;2024-02-26T06:30:49;34.20;;;21.40;;
80247;SDS011;69560;52.206;21.018;2024-02-26T06:33:16;33.80;;;20.90;;
80247;SDS011;69560;52.206;21.018;2024-02-26T06:35:43;32.70;;;21.80;;
80247;SDS011;69560;52.206;21.018;2024-02-26T06:38:10;31.40;;;20.40;;
80247;SDS011;69560;52.206;21.018;2024-02-26T06:40:39;35.40;;;22.90;;
80247;SDS011;69560;52.206;21.018;2024-02-26T06:43:06;33.50;;;21.70;;
80247;SDS011;69560;52.206;21.018;2024-02-26T06:45:32;33.00;;;22.40;;
80247;SDS011;69560;52.206;21.018;2024-02-26T06:47:59;35.20;;;22.50;;
80247;SDS011;69560;52.206;21.018;2024-02-26T06:50:25;32.50;;;22.40;;
80247;SDS011;69560;52.206;21.018;2024-02-26T06:52:52;32.40;;;20.90;;
80247;SDS011;69560;52.206;21.018;2024-02-26T06:55:19;31.70;;;20.30;;
80247;SDS011;69560;52.206;21.018;2024-02-26T06:57:46;30.80;;;21.20;;
80247;SDS011;69560;52.206;21.018;2024-02-26T07:00:12;29.80;;;20.50;;
80247;SDS011;69560;52.206;21.018;2024-02-26T07:02:42;30.60;;;21.20;;
80247;SDS011;69560;52.206;21.018;2024-02-26T07:05:09;32.40;;;21.30;;
80247;SDS011;69560;52.206;21.018;2024-02-26T07:07:36;32.40;;;21.80;;
80247;SDS011;69560;52.206;21.018;2024-02-26T07:10:03;29.40;;;20.60;;
80247;SDS011;69560;52.206;21.018;2024-02-26T07:12:31;31.10;;;21.70;;
80247;SDS011;69560;52.206;21.018;2024-02-26T07:14:58;29.50;;;21.20;;
80247;SDS011;69560;52.206;21.018;2024-02-26T07:17:25;28.10;;;20.90;;
80247;SDS011;69560;52.206;21.018;2024-02-26T07:19:51;30.10;;;21.60;;
80247;SDS011;69560;52.206;21.018;2024-02-26T07:22:19;28.90;;;21.60;;
80247;SDS011;69560;52.206;21.018;2024-02-26T07:24:45;27.40;;;20.40;;
80247;SDS011;69560;52.206;21.018;2024-02-26T07:27:12;27.00;;;20.90;;
80247;SDS011;69560;52.206;21.018;2024-02-26T07:29:39;30.70;;;20.90;;
80247;SDS011;69560;52.206;21.018;2024-02-26T07:32:06;28.60;;;20.30;;
80247;SDS011;69560;52.206;21.018;2024-02-26T07:34:32;30.20;;;20.60;;
80247;SDS011;69560;52.206;21.018;2024-02-26T07:36:59;25.10;;;19.20;;
80247;SDS011;69560;52.206;21.018;2024-02-26T07:39:25;27.40;;;20.50;;
80247;SDS011;69560;52.206;21.018;2024-02-26T07:41:52;31.10;;;21.20;;
80247;SDS011;69560;52.206;21.018;2024-02-26T07:44:19;31.90;;;21.50;;
80247;SDS011;69560;52.206;21.018;2024-02-26T07:46:45;23.90;;;18.20;;
80247;SDS011;69560;52.206;21.018;2024-02-26T07:49:12;28.60;;;20.70;;
80247;SDS011;69560;52.206;21.018;2024-02-26T07:51:38;25.30;;;19.30;;
80247;SDS011;69560;52.206;21.018;2024-02-26T07:54:05;31.20;;;21.90;;
80247;SDS011;69560;52.206;21.018;2024-02-26T07:56:32;25.40;;;19.90;;
80247;SDS011;69560;52.206;21.018;2024-02-26T07:58:59;23.60;;;19.40;;
80247;SDS011;69560;52.206;21.018;2024-02-26T08:01:25;29.10;;;19.60;;
80247;SDS011;69560;52.206;21.018;2024-02-26T08:03:53;24.60;;;19.40;;
80247;SDS011;69560;52.206;21.018;2024-02-26T08:06:20;24.50;;;18.90;;
80247;SDS011;69560;52.206;21.018;2024-02-26T08:08:46;25.80;;;20.20;;
80247;SDS011;69560;52.206;21.018;2024-02-26T08:11:16;27.40;;;18.90;;
80247;SDS011;69560;52.206;21.018;2024-02-26T08:13:42;25.00;;;18.90;;
80247;SDS011;69560;52.206;21.018;2024-02-26T08:16:09;25.30;;;20.20;;
80247;SDS011;69560;52.206;21.018;2024-02-26T08:18:35;27.60;;;19.90;;
80247;SDS011;69560;52.206;21.018;2024-02-26T08:21:02;24.90;;;19.90;;
80247;SDS011;69560;52.206;21.018;2024-02-26T08:23:29;25.10;;;19.60;;
80247;SDS011;69560;52.206;21.018;2024-02-26T08:25:57;26.10;;;20.50;;
80247;SDS011;69560;52.206;21.018;2024-02-26T08:28:24;24.80;;;20.50;;
80247;SDS011;69560;52.206;21.018;2024-02-26T08:30:51;26.70;;;19.10;;
80247;SDS011;69560;52.206;21.018;2024-02-26T08:33:17;30.60;;;20.30;;
80247;SDS011;69560;52.206;21.018;2024-02-26T08:35:44;25.00;;;19.90;;
80247;SDS011;69560;52.206;21.018;2024-02-26T08:38:10;22.80;;;18.90;;
80247;SDS011;69560;52.206;21.018;2024-02-26T08:40:37;24.60;;;18.70;;
80247;SDS011;69560;52.206;21.018;2024-02-26T08:43:03;25.40;;;19.40;;
80247;SDS011;69560;52.206;21.018;2024-02-26T08:45:30;25.30;;;19.50;;
80247;SDS011;69560;52.206;21.018;2024-02-26T08:47:56;21.30;;;18.40;;
80247;SDS011;69560;52.206;21.018;2024-02-26T08:50:25;25.40;;;19.10;;
80247;SDS011;69560;52.206;21.018;2024-02-26T08:52:52;25.80;;;19.10;;
80247;SDS011;69560;52.206;21.018;2024-02-26T08:55:19;20.50;;;18.20;;
80247;SDS011;69560;52.206;21.018;2024-02-26T08:57:46;22.60;;;18.00;;
80247;SDS011;69560;52.206;21.018;2024-02-26T09:00:14;20.40;;;16.70;;
80247;SDS011;69560;52.206;21.018;2024-02-26T09:02:41;20.20;;;17.30;;
80247;SDS011;69560;52.206;21.018;2024-02-26T09:05:10;19.50;;;17.40;;
80247;SDS011;69560;52.206;21.018;2024-02-26T09:07:36;18.10;;;14.90;;
80247;SDS011;69560;52.206;21.018;2024-02-26T09:10:03;18.20;;;16.20;;
80247;SDS011;69560;52.206;21.018;2024-02-26T09:12:31;16.10;;;14.20;;
80247;SDS011;69560;52.206;21.018;2024-02-26T09:14:57;16.60;;;14.90;;
80247;SDS011;69560;52.206;21.018;2024-02-26T09:17:24;16.30;;;14.60;;
80247;SDS011;69560;52.206;21.018;2024-02-26T09:19:50;17.10;;;15.10;;
80247;SDS011;69560;52.206;21.018;2024-02-26T09:22:17;18.30;;;16.40;;
80247;SDS011;69560;52.206;21.018;2024-02-26T09:24:44;18.50;;;16.60;;
80247;SDS011;69560;52.206;21.018;2024-02-26T09:27:10;20.30;;;16.70;;
80247;SDS011;69560;52.206;21.018;2024-02-26T09:29:36;18.10;;;15.20;;
80247;SDS011;69560;52.206;21.018;2024-02-26T09:32:03;17.80;;;15.90;;
80247;SDS011;69560;52.206;21.018;2024-02-26T09:34:30;18.60;;;16.70;;
80247;SDS011;69560;52.206;21.018;2024-02-26T09:36:56;18.00;;;16.00;;
80247;SDS011;69560;52.206;21.018;2024-02-26T09:39:23;22.30;;;15.70;;
80247;SDS011;69560;52.206;21.018;2024-02-26T09:41:50;18.00;;;15.60;;
80247;SDS011;69560;52.206;21.018;2024-02-26T09:44:20;18.40;;;15.70;;
80247;SDS011;69560;52.206;21.018;2024-02-26T09:46:49;17.60;;;15.40;;
80247;SDS011;69560;52.206;21.018;2024-02-26T09:49:19;17.90;;;16.00;;
80247;SDS011;69560;52.206;21.018;2024-02-26T09:54:16;16.30;;;14.60;;
80247;SDS011;69560;52.206;21.018;2024-02-26T09:56:43;16.80;;;14.90;;
80247;SDS011;69560;52.206;21.018;2024-02-26T09:59:15;17.50;;;15.10;;
80247;SDS011;69560;52.206;21.018;2024-02-26T10:01:44;18.60;;;15.40;;
80247;SDS011;69560;52.206;21.018;2024-02-26T10:04:12;18.10;;;15.90;;
80247;SDS011;69560;52.206;21.018;2024-02-26T10:06:39;18.80;;;16.10;;
80247;SDS011;69560;52.206;21.018;2024-02-26T10:09:07;18.20;;;15.20;;
80247;SDS011;69560;52.206;21.018;2024-02-26T10:11:36;18.90;;;16.20;;
80247;SDS011;69560;52.206;21.018;2024-02-26T10:14:04;19.70;;;16.40;;
80247;SDS011;69560;52.206;21.018;2024-02-26T10:16:30;18.60;;;16.60;;
80247;SDS011;69560;52.206;21.018;2024-02-26T10:18:58;18.70;;;16.40;;
80247;SDS011;69560;52.206;21.018;2024-02-26T10:21:24;18.80;;;16.90;;
80247;SDS011;69560;52.206;21.018;2024-02-26T10:23:51;17.30;;;15.50;;
80247;SDS011;69560;52.206;21.018;2024-02-26T10:26:18;19.20;;;16.80;;
80247;SDS011;69560;52.206;21.018;2024-02-26T10:28:45;19.30;;;16.40;;
80247;SDS011;69560;52.206;21.018;2024-02-26T10:31:13;16.80;;;15.00;;
80247;SDS011;69560;52.206;21.018;2024-02-26T10:33:41;16.40;;;14.70;;
80247;SDS011;69560;52.206;21.018;2024-02-26T10:36:09;17.80;;;15.90;;
80247;SDS011;69560;52.206;21.018;2024-02-26T10:38:36;17.30;;;14.70;;
80247;SDS011;69560;52.206;21.018;2024-02-26T10:41:07;17.50;;;15.00;;
80247;SDS011;69560;52.206;21.018;2024-02-26T10:43:39;18.50;;;16.60;;
80247;SDS011;69560;52.206;21.018;2024-02-26T10:46:05;17.00;;;15.20;;
80247;SDS011;69560;52.206;21.018;2024-02-26T10:48:33;15.60;;;14.00;;
80247;SDS011;69560;52.206;21.018;2024-02-26T10:51:00;16.50;;;13.90;;
80247;SDS011;69560;52.206;21.018;2024-02-26T10:53:28;16.20;;;14.50;;
80247;SDS011;69560;52.206;21.018;2024-02-26T10:56:00;16.20;;;14.50;;
80247;SDS011;69560;52.206;21.018;2024-02-26T10:58:29;15.50;;;13.60;;
80247;SDS011;69560;52.206;21.018;2024-02-26T11:00:57;16.30;;;12.90;;
80247;SDS011;69560;52.206;21.018;2024-02-26T11:03:25;14.50;;;13.00;;
80247;SDS011;69560;52.206;21.018;2024-02-26T11:05:53;13.60;;;12.20;;
80247;SDS011;69560;52.206;21.018;2024-02-26T11:08:20;15.00;;;12.90;;
80247;SDS011;69560;52.206;21.018;2024-02-26T11:10:48;14.30;;;12.90;;
80247;SDS011;69560;52.206;21.018;2024-02-26T11:13:19;13.30;;;11.90;;
80247;SDS011;69560;52.206;21.018;2024-02-26T11:15:48;11.70;;;10.60;;
80247;SDS011;69560;52.206;21.018;2024-02-26T11:18:15;11.90;;;10.60;;
80247;SDS011;69560;52.206;21.018;2024-02-26T11:20:45;13.20;;;11.80;;
80247;SDS011;69560;52.206;21.018;2024-02-26T11:23:14;13.90;;;12.10;;
80247;SDS011;69560;52.206;21.018;2024-02-26T11:25:41;11.50;;;10.40;;
80247;SDS011;69560;52.206;21.018;2024-02-26T11:28:10;11.20;;;9.80;;
80247;SDS011;69560;52.206;21.018;2024-02-26T11:30:42;10.20;;;9.20;;
80247;SDS011;69560;52.206;21.018;2024-02-26T11:33:16;10.90;;;9.80;;
80247;SDS011;69560;52.206;21.018;2024-02-26T11:35:49;11.10;;;9.90;;
80247;SDS011;69560;52.206;21.018;2024-02-26T11:38:21;10.20;;;9.20;;
80247;SDS011;69560;52.206;21.018;2024-02-26T11:40:52;9.50;;;8.60;;
80247;SDS011;69560;52.206;21.018;2024-02-26T11:43:23;13.80;;;12.40;;
80247;SDS011;69560;52.206;21.018;2024-02-26T11:46:34;9.80;;;8.90;;
80247;SDS011;69560;52.206;21.018;2024-02-26T11:52:07;9.10;;;8.20;;
80247;SDS011;69560;52.206;21.018;2024-02-26T11:54:50;8.40;;;7.60;;
80247;SDS011;69560;52.206;21.018;2024-02-26T11:59:54;5.80;;;5.30;;
80247;SDS011;69560;52.206;21.018;2024-02-26T12:05:30;5.50;;;5.00;;
80247;SDS011;69560;52.206;21.018;2024-02-26T12:08:05;4.50;;;4.10;;
80247;SDS011;69560;52.206;21.018;2024-02-26T12:10:35;4.90;;;4.10;;
80247;SDS011;69560;52.206;21.018;2024-02-26T12:13:14;8.10;;;4.00;;
80247;SDS011;69560;52.206;21.018;2024-02-26T12:15:45;3.50;;;3.20;;
80247;SDS011;69560;52.206;21.018;2024-02-26T12:18:21;4.00;;;3.60;;
80247;SDS011;69560;52.206;21.018;2024-02-26T12:20:58;3.90;;;3.30;;
80247;SDS011;69560;52.206;21.018;2024-02-26T12:23:27;3.70;;;3.20;;
80247;SDS011;69560;52.206;21.018;2024-02-26T12:26:00;4.60;;;3.30;;
80247;SDS011;69560;52.206;21.018;2024-02-26T12:28:30;5.00;;;3.50;;
80247;SDS011;69560;52.206;21.018;2024-02-26T12:30:57;3.80;;;3.40;;
80247;SDS011;69560;52.206;21.018;2024-02-26T12:33:26;3.20;;;3.00;;
80247;SDS011;69560;52.206;21.018;2024-02-26T12:35:53;4.10;;;3.10;;
80247;SDS011;69560;52.206;21.018;2024-02-26T12:38:19;4.20;;;3.50;;
80247;SDS011;69560;52.206;21.018;2024-02-26T12:40:47;4.10;;;3.20;;
80247;SDS011;69560;52.206;21.018;2024-02-26T12:43:15;4.60;;;3.00;;
80247;SDS011;69560;52.206;21.018;2024-02-26T12:45:42;3.10;;;2.80;;
80247;SDS011;69560;52.206;21.018;2024-02-26T12:48:13;3.80;;;2.80;;
80247;SDS011;69560;52.206;21.018;2024-02-26T12:50:44;5.00;;;2.80;;
80247;SDS011;69560;52.206;21.018;2024-02-26T12:53:11;3.50;;;3.10;;
80247;SDS011;69560;52.206;21.018;2024-02-26T12:55:38;4.80;;;2.90;;
80247;SDS011;69560;52.206;21.018;2024-02-26T12:58:06;2.50;;;2.30;;
80247;SDS011;69560;52.206;21.018;2024-02-26T13:00:33;3.00;;;2.70;;
80247;SDS011;69560;52.206;21.018;2024-02-26T13:03:00;2.70;;;2.50;;
80247;SDS011;69560;52.206;21.018;2024-02-26T13:05:27;3.80;;;2.80;;
80247;SDS011;69560;52.206;21.018;2024-02-26T13:07:54;4.30;;;2.50;;
80247;SDS011;69560;52.206;21.018;2024-02-26T13:10:21;2.30;;;2.10;;
80247;SDS011;69560;52.206;21.018;2024-02-26T13:12:49;2.90;;;2.30;;
80247;SDS011;69560;52.206;21.018;2024-02-26T13:15:20;3.40;;;2.30;;
80247;SDS011;69560;52.206;21.018;2024-02-26T13:17:48;3.30;;;2.50;;
80247;SDS011;69560;52.206;21.018;2024-02-26T13:20:25;2.60;;;2.40;;
80247;SDS011;69560;52.206;21.018;2024-02-26T13:23:04;3.00;;;2.50;;
80247;SDS011;69560;52.206;21.018;2024-02-26T13:25:32;2.70;;;2.50;;
80247;SDS011;69560;52.206;21.018;2024-02-26T13:28:09;3.10;;;2.30;;
80247;SDS011;69560;52.206;21.018;2024-02-26T13:30:40;2.90;;;2.70;;
80247;SDS011;69560;52.206;21.018;2024-02-26T13:33:07;3.00;;;2.70;;
80247;SDS011;69560;52.206;21.018;2024-02-26T13:35:35;3.20;;;2.70;;
80247;SDS011;69560;52.206;21.018;2024-02-26T13:38:02;5.30;;;3.30;;
80247;SDS011;69560;52.206;21.018;2024-02-26T13:40:29;4.00;;;3.10;;
80247;SDS011;69560;52.206;21.018;2024-02-26T13:42:56;3.50;;;3.20;;
80247;SDS011;69560;52.206;21.018;2024-02-26T13:45:23;3.70;;;3.00;;
80247;SDS011;69560;52.206;21.018;2024-02-26T13:47:49;4.30;;;3.40;;
80247;SDS011;69560;52.206;21.018;2024-02-26T13:50:16;4.10;;;3.20;;
80247;SDS011;69560;52.206;21.018;2024-02-26T13:52:44;4.30;;;3.40;;
80247;SDS011;69560;52.206;21.018;2024-02-26T13:55:11;2.90;;;2.60;;
80247;SDS011;69560;52.206;21.018;2024-02-26T13:57:37;5.40;;;2.90;;
80247;SDS011;69560;52.206;21.018;2024-02-26T14:00:04;5.40;;;3.80;;
80247;SDS011;69560;52.206;21.018;2024-02-26T14:02:32;4.50;;;3.20;;
80247;SDS011;69560;52.206;21.018;2024-02-26T14:05:02;3.70;;;3.30;;
80247;SDS011;69560;52.206;21.018;2024-02-26T14:07:30;3.50;;;3.20;;
80247;SDS011;69560;52.206;21.018;2024-02-26T14:10:00;4.50;;;3.70;;
80247;SDS011;69560;52.206;21.018;2024-02-26T14:12:26;5.50;;;3.10;;
80247;SDS011;69560;52.206;21.018;2024-02-26T14:14:53;4.10;;;3.70;;
80247;SDS011;69560;52.206;21.018;2024-02-26T14:17:21;4.10;;;3.60;;
80247;SDS011;69560;52.206;21.018;2024-02-26T14:19:48;3.60;;;3.30;;
80247;SDS011;69560;52.206;21.018;2024-02-26T14:22:16;3.00;;;2.70;;
80247;SDS011;69560;52.206;21.018;2024-02-26T14:24:42;4.50;;;3.30;;
80247;SDS011;69560;52.206;21.018;2024-02-26T14:27:09;5.40;;;3.20;;